Terminal Aerodrome Forecast
Issued by NWS Pittsburgh, PA

Current Version | Previous Version | Graphics & Text | Print | Product List | Glossary On
Versions: 1 2 3 4 5 6 7 8 9 10 11 12 13 14 15 16 17 18 19 20 21 22 23 24 25 26 27 28 29 30 31 32 33 34 35 36 37 38 39 40 41
000
FTUS41 KPBZ 010619 AAA
TAFPIT
TAF AMD
KPIT 010619Z 0106/0212 14007KT 4SM -RA BR BKN005
     FM010900 16007KT 4SM -RA BR OVC007
     FM011200 19007KT P6SM VCSH OVC015
     FM011700 21006KT P6SM VCTS BKN035CB
     FM020000 VRB03KT P6SM VCSH BKN025
     FM020800 00000KT 3SM BR VCSH OVC012=

USA.gov is the U.S. government's official web portal to all federal, state and local government web resources and services.